Terminal Aerodrome Forecast
Issued by NWS

Home | Current Version | Previous Version | Text Only | Print | Product List | Glossary On
Versions: 1 2 3 4 5 6 7 8 9 10 11 12 13 14 15 16 17 18 19 20 21 22 23 24
000
FTUS43 KAPX 211100
TAFPLN
TAF
KPLN 211121Z 2112/2212 00000KT P6SM BKN006 OVC012
     FM211500 VRB03KT P6SM OVC015
     FM211700 VRB03KT P6SM SCT030 BKN250
     FM220800 09004KT 5SM -SHRA OVC025=

USA.gov is the U.S. government's official web portal to all federal, state and local government web resources and services.